createdAt,value
2019-04-23T00:01:36.752Z,54.47
2019-04-23T00:04:07.205Z,54.76
2019-04-23T00:06:33.810Z,55.07
2019-04-23T00:09:07.300Z,54.87
2019-04-23T00:14:01.274Z,55.22
2019-04-23T00:16:30.204Z,55.31
2019-04-23T00:18:49.404Z,55.34
2019-04-23T00:21:28.409Z,55.62
2019-04-23T00:24:03.082Z,55.69
2019-04-23T00:26:30.648Z,55.58
2019-04-23T00:31:38.870Z,55.75
2019-04-23T00:33:46.157Z,55.87
2019-04-23T00:36:23.058Z,55.76
2019-04-23T00:38:46.852Z,55.83
2019-04-23T00:41:10.638Z,56.10
2019-04-23T00:43:43.130Z,56.09
2019-04-23T00:46:06.555Z,56.23
2019-04-23T00:48:44.069Z,56.09
2019-04-23T00:50:58.581Z,56.35
2019-04-23T00:53:43.959Z,56.33
2019-04-23T00:56:23.605Z,56.30
2019-04-23T00:58:38.222Z,56.40
2019-04-23T01:00:57.833Z,56.49
2019-04-23T01:03:47.302Z,56.65
2019-04-23T01:05:53.957Z,56.62
2019-04-23T01:08:24.900Z,56.91
2019-04-23T01:10:56.472Z,56.95
2019-04-23T01:13:36.717Z,56.95
2019-04-23T01:15:56.293Z,56.97
2019-04-23T01:18:32.666Z,57.20
2019-04-23T01:20:52.713Z,57.38
2019-04-23T01:23:05.642Z,57.25
2019-04-23T01:25:42.621Z,57.42
2019-04-23T01:28:33.590Z,57.52
2019-04-23T01:31:02.495Z,57.70
2019-04-23T01:33:32.932Z,57.75
2019-04-23T01:38:29.326Z,57.88
2019-04-23T01:40:46.118Z,58.02
2019-04-23T01:43:16.319Z,57.91
2019-04-23T01:45:35.859Z,57.97
2019-04-23T01:48:13.654Z,57.88
2019-04-23T01:53:16.312Z,58.08
2019-04-23T01:55:42.151Z,58.39
2019-04-23T01:58:35.003Z,58.40
2019-04-23T02:00:43.702Z,58.38
2019-04-23T02:05:38.525Z,58.48
2019-04-23T02:08:05.164Z,58.66
2019-04-23T02:15:37.425Z,58.52
2019-04-23T02:18:08.874Z,58.59
2019-04-23T02:20:36.012Z,58.80
2019-04-23T02:23:28.106Z,58.51
2019-04-23T02:33:29.881Z,58.67
2019-04-23T02:40:58.892Z,58.59
2019-04-23T02:43:14.414Z,58.77
2019-04-23T02:45:48.384Z,59.15
2019-04-23T02:50:39.772Z,59.45
2019-04-23T02:53:20.242Z,59.44
2019-04-23T02:55:43.337Z,59.29
2019-04-23T02:58:09.998Z,59.39
2019-04-23T03:00:40.155Z,59.34
2019-04-23T03:03:28.161Z,59.41
2019-04-23T03:05:45.556Z,59.42
2019-04-23T03:08:00.416Z,59.42
2019-04-23T03:10:32.279Z,59.36
2019-04-23T03:13:09.121Z,59.73
2019-04-23T03:15:57.908Z,59.58
2019-04-23T03:21:05.778Z,59.87
2019-04-23T03:23:34.516Z,59.81
2019-04-23T03:26:09.122Z,59.67
2019-04-23T03:32:45.781Z,59.90
2019-04-23T03:38:38.004Z,59.81
2019-04-23T03:41:09.048Z,59.85
2019-04-23T03:46:12.421Z,59.96
2019-04-23T03:50:38.866Z,60.39
2019-04-23T03:53:24.404Z,60.13
2019-04-23T03:58:18.770Z,60.41
2019-04-23T04:03:27.445Z,60.49
2019-04-23T04:10:44.274Z,60.91
2019-04-23T04:13:13.766Z,60.66
2019-04-23T04:18:23.671Z,60.80
2019-04-23T04:23:16.931Z,60.83
2019-04-23T04:28:11.943Z,61.00
2019-04-23T04:30:43.129Z,60.75
2019-04-23T04:33:31.968Z,61.17
2019-04-23T04:35:47.391Z,61.09
2019-04-23T04:38:38.528Z,61.02
2019-04-23T04:41:00.091Z,60.96
2019-04-23T04:45:52.123Z,61.07
2019-04-23T04:48:13.686Z,61.22
2019-04-23T04:51:00.053Z,61.17
2019-04-23T04:58:07.231Z,61.21
2019-04-23T05:06:01.436Z,61.33
2019-04-23T05:08:11.454Z,61.11
2019-04-23T05:13:21.763Z,61.24
2019-04-23T05:15:42.990Z,61.21
2019-04-23T05:20:50.695Z,61.39
2019-04-23T05:25:40.105Z,61.10
2019-04-23T05:28:26.754Z,61.19
2019-04-23T05:30:38.414Z,61.20
2019-04-23T05:33:07.760Z,61.01
2019-04-23T05:35:56.104Z,61.17
2019-04-23T05:40:37.249Z,61.03
2019-04-23T05:42:58.740Z,61.04
2019-04-23T05:45:21.712Z,61.12
2019-04-23T05:47:59.328Z,60.78
2019-04-23T05:50:30.230Z,60.85
2019-04-23T05:52:57.733Z,61.00
2019-04-23T05:55:13.245Z,61.00
2019-04-23T05:57:45.707Z,61.00
2019-04-23T06:00:21.310Z,60.90
2019-04-23T06:05:08.874Z,60.87
2019-04-23T06:10:04.869Z,60.80
2019-04-23T06:12:31.464Z,60.97
2019-04-23T06:17:27.453Z,60.54
2019-04-23T06:20:03.089Z,60.67
2019-04-23T06:22:34.687Z,60.69
2019-04-23T06:25:00.335Z,60.78
2019-04-23T06:30:04.515Z,60.47
2019-04-23T06:32:22.761Z,60.49
2019-04-23T06:34:47.323Z,60.53
2019-04-23T06:37:18.344Z,60.34
2019-04-23T06:39:41.290Z,60.27
2019-04-23T06:42:08.115Z,60.20
2019-04-23T06:44:37.263Z,60.28
2019-04-23T06:47:06.807Z,60.34
2019-04-23T06:49:47.322Z,60.12
2019-04-23T06:57:14.658Z,59.89
2019-04-23T06:59:33.559Z,59.73
2019-04-23T07:04:28.871Z,59.84
2019-04-23T07:07:19.151Z,59.51
2019-04-23T07:09:15.247Z,59.92
2019-04-23T07:11:48.212Z,59.33
2019-04-23T07:14:12.648Z,59.47
2019-04-23T07:16:46.296Z,59.40
2019-04-23T07:19:34.176Z,59.37
2019-04-23T07:21:41.746Z,59.09
2019-04-23T07:24:13.409Z,59.00
2019-04-23T07:29:08.097Z,58.97
2019-04-23T07:36:34.238Z,58.59
2019-04-23T07:41:59.391Z,58.20
2019-04-23T07:44:28.264Z,58.17
2019-04-23T07:47:03.058Z,58.06
2019-04-23T07:49:27.358Z,58.12
2019-04-23T07:51:59.119Z,57.77
2019-04-23T07:54:22.856Z,57.57
2019-04-23T07:56:58.559Z,57.67
2019-04-23T07:59:21.074Z,57.66
2019-04-23T08:01:39.231Z,57.41
2019-04-23T08:04:08.961Z,57.10
2019-04-23T08:06:40.488Z,56.68
2019-04-23T08:09:08.761Z,56.74
2019-04-23T08:11:49.410Z,55.96
2019-04-23T08:14:06.530Z,55.79
2019-04-23T08:18:57.794Z,55.51
2019-04-23T08:21:25.356Z,55.21
2019-04-23T08:24:01.890Z,55.21
2019-04-23T08:29:15.506Z,53.92
2019-04-23T08:31:43.816Z,54.22
2019-04-23T08:36:42.372Z,54.77
2019-04-23T08:39:12.475Z,54.86
2019-04-23T08:41:46.034Z,55.18
2019-04-23T08:44:15.348Z,55.49
2019-04-23T08:49:36.101Z,55.79
2019-04-23T08:54:46.777Z,56.20
2019-04-23T08:57:02.756Z,56.18
2019-04-23T08:59:33.198Z,56.20
2019-04-23T09:02:07.668Z,56.25
2019-04-23T09:04:24.018Z,56.17
2019-04-23T09:06:53.335Z,55.97
2019-04-23T09:09:20.061Z,55.54
2019-04-23T09:14:05.195Z,55.34
2019-04-23T09:16:44.375Z,55.15
2019-04-23T09:19:16.136Z,55.53
2019-04-23T09:21:40.559Z,55.74
2019-04-23T09:24:03.746Z,54.81
2019-04-23T09:26:33.117Z,54.92
2019-04-23T09:29:19.104Z,54.68
2019-04-23T09:34:18.724Z,54.21
2019-04-23T09:36:57.942Z,54.70
2019-04-23T09:39:27.543Z,54.22
2019-04-23T09:42:02.276Z,53.88
2019-04-23T09:47:21.311Z,52.72
2019-04-23T09:49:50.196Z,51.84
2019-04-23T09:52:23.678Z,52.15
2019-04-23T09:54:47.701Z,51.82
2019-04-23T09:57:10.583Z,50.90
2019-04-23T09:59:45.218Z,50.94
2019-04-23T10:02:04.563Z,51.12
2019-04-23T10:04:23.218Z,49.49
2019-04-23T10:06:49.439Z,50.13
2019-04-23T10:09:10.674Z,49.95
2019-04-23T10:11:37.478Z,49.93
2019-04-23T10:14:03.996Z,50.37
2019-04-23T10:16:34.113Z,49.51
2019-04-23T10:19:00.673Z,49.58
2019-04-23T10:21:26.706Z,49.69
2019-04-23T10:23:52.799Z,48.83
2019-04-23T10:26:19.830Z,49.12
2019-04-23T10:28:49.677Z,48.67
2019-04-23T10:31:16.727Z,47.54
2019-04-23T10:33:44.033Z,46.63
2019-04-23T10:36:14.943Z,47.39
2019-04-23T10:38:41.666Z,45.79
2019-04-23T10:41:06.720Z,46.36
2019-04-23T10:43:37.892Z,44.23
2019-04-23T10:46:20.418Z,43.43
2019-04-23T10:49:11.315Z,41.50
2019-04-23T10:51:33.796Z,38.71
2019-04-23T10:54:25.108Z,38.16
2019-04-23T10:58:58.915Z,35.42
2019-04-23T11:01:32.083Z,36.29
2019-04-23T11:04:23.094Z,35.21
2019-04-23T11:06:42.778Z,37.11
2019-04-23T11:09:11.392Z,35.25
2019-04-23T11:11:36.199Z,33.99
2019-04-23T11:16:50.718Z,31.73
2019-04-23T11:19:15.631Z,30.98
2019-04-23T11:21:32.798Z,31.58
2019-04-23T11:24:02.519Z,30.39
2019-04-23T11:26:29.881Z,31.25
2019-04-23T11:28:52.068Z,32.32
2019-04-23T11:31:31.598Z,32.93
2019-04-23T11:34:01.085Z,33.84
2019-04-23T11:41:25.020Z,33.39
2019-04-23T11:43:55.653Z,31.76
2019-04-23T11:48:50.805Z,29.89
2019-04-23T11:56:16.106Z,26.83
2019-04-23T11:58:39.281Z,25.52
2019-04-23T12:01:44.796Z,25.99
2019-04-23T12:04:13.539Z,27.00
2019-04-23T12:06:30.136Z,25.54
2019-04-23T12:09:09.665Z,26.91
2019-04-23T12:17:59.036Z,27.86
2019-04-23T12:22:01.457Z,26.29
2019-04-23T12:24:42.083Z,25.74
2019-04-23T12:29:29.274Z,24.97
2019-04-23T12:32:30.909Z,26.08
2019-04-23T12:34:49.464Z,27.18
2019-04-23T12:37:12.114Z,27.95
2019-04-23T12:39:41.791Z,28.19
2019-04-23T12:42:25.458Z,28.76
2019-04-23T12:44:39.296Z,28.07
2019-04-23T12:52:12.080Z,25.92
2019-04-23T12:54:51.736Z,25.90
2019-04-23T12:57:14.770Z,25.70
2019-04-23T12:59:36.778Z,25.58
2019-04-23T13:02:08.227Z,24.92
2019-04-23T13:04:32.463Z,23.61
2019-04-23T13:07:00.421Z,22.19
2019-04-23T13:12:10.391Z,22.10
2019-04-23T13:14:46.741Z,22.91
2019-04-23T13:19:40.857Z,23.19
2019-04-23T13:22:16.414Z,24.68
2019-04-23T13:24:43.708Z,24.42
2019-04-23T13:27:23.949Z,23.59
2019-04-23T13:29:51.219Z,24.21
2019-04-23T13:32:15.260Z,23.74
2019-04-23T13:34:50.607Z,23.52
2019-04-23T13:37:21.629Z,22.50
2019-04-23T13:39:39.828Z,23.30
2019-04-23T13:42:15.909Z,22.85
2019-04-23T13:44:42.443Z,23.58
2019-04-23T13:47:13.327Z,23.24
2019-04-23T13:49:37.660Z,22.72
2019-04-23T13:52:19.100Z,23.48
2019-04-23T13:54:56.555Z,23.54
2019-04-23T13:59:48.585Z,23.31
2019-04-23T14:02:07.688Z,23.27
2019-04-23T14:04:45.038Z,23.00
2019-04-23T14:07:15.044Z,23.33
2019-04-23T14:09:48.917Z,24.63
2019-04-23T14:12:08.307Z,23.69
2019-04-23T14:17:18.141Z,23.89
2019-04-23T14:19:28.376Z,24.50
2019-04-23T14:22:03.067Z,24.56
2019-04-23T14:24:38.231Z,26.16
2019-04-23T14:26:59.611Z,26.25
2019-04-23T14:29:34.111Z,26.23
2019-04-23T14:32:05.055Z,26.30
2019-04-23T14:34:24.952Z,26.34
2019-04-23T14:36:57.526Z,26.16
2019-04-23T14:39:24.441Z,27.10
2019-04-23T14:41:56.682Z,27.32
2019-04-23T14:46:58.162Z,27.44
2019-04-23T14:49:19.309Z,27.48
2019-04-23T14:54:22.912Z,26.14
2019-04-23T14:56:45.379Z,27.24
2019-04-23T15:01:47.750Z,26.67
2019-04-23T15:04:24.174Z,26.65
2019-04-23T15:06:43.297Z,26.62
2019-04-23T15:09:19.221Z,26.97
2019-04-23T15:14:06.081Z,29.32
2019-04-23T15:16:39.162Z,30.52
2019-04-23T15:19:11.696Z,31.21
2019-04-23T15:22:08.404Z,32.12
2019-04-23T15:24:32.895Z,31.82
2019-04-23T15:29:09.833Z,32.10
2019-04-23T15:31:58.920Z,31.84
2019-04-23T15:37:14.220Z,32.39
2019-04-23T15:39:21.394Z,32.86
2019-04-23T15:44:14.898Z,33.58
2019-04-23T15:46:58.104Z,34.50
2019-04-23T15:49:21.347Z,35.91
2019-04-23T15:54:19.514Z,36.29
2019-04-23T15:56:40.906Z,36.26
2019-04-23T15:59:23.646Z,36.39
2019-04-23T16:01:37.232Z,36.63
2019-04-23T16:03:38.282Z,36.99
2019-04-23T16:06:06.496Z,37.74
2019-04-23T16:11:41.186Z,38.05
2019-04-23T16:14:13.441Z,37.99
2019-04-23T16:16:29.885Z,38.38
2019-04-23T16:19:17.563Z,38.62
2019-04-23T16:21:58.652Z,39.04
2019-04-23T16:24:19.417Z,39.44
2019-04-23T16:26:55.351Z,39.69
2019-04-23T16:31:47.799Z,40.84
2019-04-23T16:34:20.938Z,41.62
2019-04-23T16:36:54.765Z,41.62
2019-04-23T16:39:10.274Z,41.75
2019-04-23T16:41:41.796Z,42.11
2019-04-23T16:44:11.372Z,42.51
2019-04-23T16:46:34.004Z,42.92
2019-04-23T16:54:01.697Z,43.78
2019-04-23T16:56:42.096Z,44.05
2019-04-23T17:01:21.364Z,44.50
2019-04-23T17:03:57.894Z,44.76
2019-04-23T17:06:27.597Z,45.14
2019-04-23T17:08:57.590Z,45.11
2019-04-23T17:11:20.448Z,45.82
2019-04-23T17:13:51.671Z,46.49
2019-04-23T17:18:48.768Z,46.89
2019-04-23T17:21:11.726Z,47.00
2019-04-23T17:26:13.667Z,47.61
2019-04-23T17:28:38.352Z,47.59
2019-04-23T17:31:28.164Z,48.22
2019-04-23T17:33:41.728Z,48.56
2019-04-23T17:36:22.844Z,48.99
2019-04-23T17:38:55.064Z,49.60
2019-04-23T17:41:22.049Z,49.54
2019-04-23T17:44:00.011Z,50.16
2019-04-23T17:46:23.792Z,50.38
2019-04-23T17:48:55.390Z,50.85
2019-04-23T17:51:19.694Z,51.03
2019-04-23T17:53:49.527Z,51.77
2019-04-23T17:58:43.515Z,52.28
2019-04-23T18:04:02.334Z,53.04
2019-04-23T18:08:43.206Z,53.67
2019-04-23T18:13:43.304Z,54.62
2019-04-23T18:16:09.512Z,54.58
2019-04-23T18:18:39.133Z,54.98
2019-04-23T18:21:14.247Z,55.67
2019-04-23T18:23:32.670Z,55.99
2019-04-23T18:26:04.115Z,56.69
2019-04-23T18:28:29.333Z,56.53
2019-04-23T18:31:09.602Z,56.08
2019-04-23T18:36:05.288Z,56.65
2019-04-23T18:38:41.581Z,57.15
2019-04-23T18:43:51.176Z,57.50
2019-04-23T18:46:13.855Z,57.67
2019-04-23T18:53:43.469Z,58.44
2019-04-23T18:56:22.185Z,58.68
2019-04-23T18:58:50.357Z,58.33
2019-04-23T19:01:05.371Z,58.82
2019-04-23T19:03:57.683Z,58.91
2019-04-23T19:06:23.452Z,59.03
2019-04-23T19:14:14.671Z,59.43
2019-04-23T19:16:41.879Z,59.82
2019-04-23T19:19:01.472Z,60.03
2019-04-23T19:21:57.547Z,60.83
2019-04-23T19:23:54.969Z,60.68
2019-04-23T19:26:47.268Z,61.15
2019-04-23T19:28:55.917Z,61.21
2019-04-23T19:31:50.632Z,61.30
2019-04-23T19:34:35.729Z,61.17
2019-04-23T19:36:54.758Z,61.47
2019-04-23T19:39:17.634Z,61.88
2019-04-23T19:44:08.417Z,62.10
2019-04-23T19:46:48.934Z,62.24
2019-04-23T19:51:45.497Z,62.28
2019-04-23T19:54:16.698Z,62.93
2019-04-23T19:56:39.662Z,63.00
2019-04-23T19:59:01.815Z,62.81
2019-04-23T20:01:53.323Z,63.30
2019-04-23T20:04:09.392Z,63.00
2019-04-23T20:11:29.699Z,63.29
2019-04-23T20:18:52.371Z,64.06
2019-04-23T20:21:13.244Z,63.99
2019-04-23T20:29:03.289Z,64.39
2019-04-23T20:36:25.606Z,65.06
2019-04-23T20:38:55.374Z,64.65
2019-04-23T20:43:49.163Z,65.14
2019-04-23T20:46:10.839Z,65.16
2019-04-23T20:51:09.185Z,65.16
2019-04-23T20:53:40.380Z,65.24
2019-04-23T20:58:56.704Z,65.75
2019-04-23T21:03:53.605Z,65.79
2019-04-23T21:06:16.886Z,66.18
2019-04-23T21:09:08.090Z,66.40
2019-04-23T21:11:07.008Z,66.65
2019-04-23T21:16:08.867Z,66.56
2019-04-23T21:18:39.394Z,67.04
2019-04-23T21:20:57.952Z,66.88
2019-04-23T21:23:29.961Z,67.47
2019-04-23T21:25:52.618Z,67.39
2019-04-23T21:28:40.226Z,67.25
2019-04-23T21:31:06.542Z,67.50
2019-04-23T21:36:13.898Z,67.75
2019-04-23T21:39:03.516Z,67.82
2019-04-23T21:46:30.668Z,67.86
2019-04-23T21:49:08.690Z,67.81
2019-04-23T21:53:52.537Z,68.03
2019-04-23T21:58:57.915Z,68.32
2019-04-23T22:01:27.574Z,68.21
2019-04-23T22:06:21.869Z,68.32
2019-04-23T22:08:53.232Z,68.29
2019-04-23T22:11:36.106Z,67.97
2019-04-23T22:16:14.574Z,68.38
2019-04-23T22:18:57.272Z,68.36
2019-04-23T22:21:28.615Z,68.79
2019-04-23T22:23:56.135Z,68.49
2019-04-23T22:26:16.273Z,68.57
2019-04-23T22:28:52.389Z,68.48
2019-04-23T22:31:12.498Z,68.45
2019-04-23T22:33:41.850Z,68.51
2019-04-23T22:36:09.314Z,68.44
2019-04-23T22:38:35.887Z,68.66
2019-04-23T22:41:03.121Z,68.75
2019-04-23T22:45:59.539Z,68.70
2019-04-23T22:48:23.491Z,69.29
2019-04-23T22:51:06.994Z,69.23
2019-04-23T22:53:13.836Z,68.92
2019-04-23T22:58:09.659Z,69.41
2019-04-23T23:01:12.703Z,69.29
2019-04-23T23:03:35.925Z,69.12
2019-04-23T23:06:10.949Z,68.79
2019-04-23T23:08:32.073Z,68.80
2019-04-23T23:11:02.255Z,68.94
2019-04-23T23:13:33.435Z,69.18
2019-04-23T23:16:07.106Z,69.02
2019-04-23T23:20:59.543Z,69.56
2019-04-23T23:23:18.009Z,69.52
2019-04-23T23:25:52.021Z,69.67
2019-04-23T23:28:20.124Z,69.84
2019-04-23T23:35:43.621Z,69.62
2019-04-23T23:38:16.685Z,70.13
2019-04-23T23:48:08.072Z,69.63
2019-04-23T23:53:11.975Z,69.80
2019-04-23T23:55:30.080Z,69.51
2019-04-23T23:58:10.361Z,69.62
